Anson, ME

8:14 AM EDT on August 30, 2014 (GMT -0400)
Camberly Gardens Nursery | Change Station
CLOSE
Current Station
Personal Weather Station
Location: Embden, ME
Elevation: 413 ft
Nearby Weather Stations

Elev 413 ft 44.88 °N, 69.97 °W | Updated 1 minute ago

Overcast
Overcast
52.2 °F
Feels Like 52.2 °F
N
0.0
Wind Variable Wind from SE
Gusts 1.0 mph

Today
High -- | Low -- °F
--% Chance of Precip.
Yesterday
High -- | Low -- °F
Precip. -- in
5:59 AM 7:20 PM
Waxing Crescent, 21% visible
Pressure 30.23 in
Visibility 10.0 miles
Clouds Clear
Dew Point 51 °F
Humidity 97%
Rainfall 0.00 in
Snow Depth Not available.
UV 1 out of 12
Pollen 6.80 out of 12
Ozone Good
Flu Activity Not available.
METAR KWVL 301155Z 19004KT 10SM CLR 12/11 A3023 RMK AO1 10120 20090 52003

More Conditions Fewer Conditions

Pressure 30.23 in
Visibility 10.0 miles
Clouds Clear
Dew Point 51 °F
Humidity 97%
Rainfall 0.00 in
Snow Depth Not available.
UV 1 out of 12
Pollen 6.80 out of 12
Ozone Good
Flu Activity Not available.
METAR KWVL 301155Z 19004KT 10SM CLR 12/11 A3023 RMK AO1 10120 20090 52003

More Conditions Fewer Conditions

10-Day Weather Forecast

Almanac

Astronomy

Aug. 30, 2014 Rise Set
Actual Time 5:59 AM EDT 7:20 PM EDT
Civil Twilight 5:29 AM EDT 7:50 PM EDT
Nautical Twilight 4:52 AM EDT 8:26 PM EDT
Astronomical Twilight 4:13 AM EDT 9:05 PM EDT
Moon 10:57 AM EDT 9:38 PM EDT
Length of Visible Light 14h 21m
Length of Day
13h 20m
Tomorrow will be 2m 59s shorter.
Waxing Crescent, 21% of the Moon is Illuminated
Today
Waxing Crescent
Sep 2
First Quarter
Sep 8
Full
Sep 15
Last Quarter
Sep 24
New

Today's Extremes

State Highs State Lows

Community

WunderPhotos

Upload Photos

1,748,500 photos uploaded!

WunderBlogs® & News

By Dr. Jeff Masters
Director of Meteorology, Weather Underground
By Kari Strenfel
Meteorologist, Weather Underground
By Christopher C. Burt
Weather Historian, Weather Underground
August 30, 2014
August 30, 2014
August 30, 2014

Nearby

Air Quality

  Air Quality AQ Index Pollutant
Yesterday Good
OZONE
Current Good
OZONE
Saturday Good
OZONE
Saturday Good
PM2.5
Sunday Good
OZONE
Sunday Good
PM2.5
Monday Good
OZONE
Monday Good
PM2.5
Tuesday Good
OZONE
Tuesday Good
PM2.5
Wednesday Good
OZONE
Wednesday Good
PM2.5

Snow Depth

Station Depth Elevation
No new snow has been reported.

Earthquake Activity

City Distance Mag. Time & Date
No recent earthquake activity has been reported nearby.
Minimum magnitude displayed is 2.5.

Coastal Water Temperatures

Place Temperature
No Stations Reporting

Nearby Weather Stations